Detall de PIREP

Printer-friendly versionPDF version

[2016/01/05 07:55:00]
Flight IATA:CT2101
Pilot Number:041
Company ICAO:CAT
Aircraft Type:BE20/A
PAX:4
Departing Airport: LEAS
Destination Airport: LEVC
Alternate Airport:LEBL
Online: VATSIM
Route:XONDA R107 ZMR UL155 NVS UM871 ABOSI
Flight Level:FL240
No Slew and time accel
No pause
Crash detect
Detect pilot in Cockpit between each 30 and 45 minutes
07:55 Zero fuel Weight: 8737 Lbs, Fuel Weight: 3677 Lbs
07:55 VATSIM:LEAS 050730Z 22012KT 9999 FEW032 FEW041TCU SCT053 06/04 Q1004 TEMPO 4000 SHRA SCT025TCU
07:55 VATSIM:LEVC 050730Z 00000KT 9999 FEW030 SCT050 13/07 Q1004 NOSIG
07:55 VOICE CATALONIAN
07:59 Parking Brakes off
08:03 Take-off
08:03 Take off Weight: 12385 Lbs
08:03 Wind: 257º @ 011 Knots Heading: 286º
08:03 POS N43º 33´ 52´´ W006º 02´ 21´´
08:03 Gear Up: 141 Knots
08:03 Flaps:1 at 141 Knots
08:03 Flaps:0 at 142 Knots
08:18 Wind:276º@038 Knots Heading: 182º Ground Speed: 218 Knots Altitude 15433 ft
08:29 TOC
08:29 Fuel Weight: 3306 Lb
08:33 Wind:295º@031 Knots Heading: 178º Ground Speed: 274 Knots Altitude 23743 ft
08:48 Wind:314º@022 Knots Heading: 137º Ground Speed: 275 Knots Altitude 23828 ft
09:03 Wind:342º@019 Knots Heading: 087º Ground Speed: 262 Knots Altitude 23822 ft
09:18 Wind:325º@019 Knots Heading: 140º Ground Speed: 277 Knots Altitude 23802 ft
09:31 TOD
09:31 Fuel Weight: 2704 Lb
09:33 Wind:278º@029 Knots Heading: 146º Ground Speed: 297 Knots Altitude 22470 ft
09:48 Wind:269º@017 Knots Heading: 102º Ground Speed: 237 Knots Altitude 7631 ft
09:55 Flaps:1 at 171 Knots
09:55 Gear Down: 151 Knots
09:56 Flaps:2 at 141 Knots
09:59 TouchDown:Rate -126 ft/min Speed: 93 Knots
09:59 Flaps:0 at 79 Knots
09:59 VATSIM:LEVC 050930Z 00000KT 9999 FEW025 15/06 Q1005 NOSIG
09:59 Land
09:59 Wind:073º@001 Knots
09:59 Heading: 291º
09:59 Flight Duration: 01:56
09:59 Landing Weight: 11267 Lbs
09:59 POS N39º 29´ 15´´ W000º 28´ 39´´
10:01 Parking brakes on
10:01 Block to Block Duration: 02:02
10:01 Final Fuel: 2522 Lbls
10:01 Spent Fuel: 1155 Lbls
10:01 Flight Length: 484 NM
10:01 TOD Land Length: 107 NM

Exportar CSV

Powered by Drupal - Modified by Danger4k